Time;durP1;ratioP1;P1;durP2;ratioP2;P2;SDS_P1;SDS_P2;PMS_P1;PMS_P2;Temp;Humidity;BMP_temperature;BMP_pressure;BME280_temperature;BME280_humidity;BME280_pressure;Samples;Min_cycle;Max_cycle;Signal;HPM_P1;HPM_P2
2023/04/16 00:01:33;;;;;;;;;;;;;;;-144.99;90.67;52439.94;5054871;28;19933;-66
2023/04/16 00:04:00;;;;;;;;;;;;;;;-144.99;90.94;52350.25;5061292;28;20316;-67
2023/04/16 00:06:27;;;;;;;;;;;;;;;-144.99;91.22;52374.72;5071749;28;19929;-67
2023/04/16 00:08:53;;;;;;;;;;;;;;;-144.99;91.62;52435.88;5066535;28;19925;-67
2023/04/16 00:11:20;;;;;;;;;;;;;;;-144.99;91.59;52423.63;5068616;28;19924;-66
2023/04/16 00:13:46;;;;;;;;;;;;;;;-144.99;91.67;52425.66;5060855;28;19928;-65
2023/04/16 00:16:13;;;;;;;;;;;;;;;-144.99;91.65;52439.94;5058962;28;20000;-65
2023/04/16 00:18:41;;;;;;;;;;;;;;;-144.99;91.76;52391.03;5068963;28;19981;-65
2023/04/16 00:21:07;;;;;;;;;;;;;;;-144.99;91.86;52395.09;5071501;28;19960;-64
2023/04/16 00:23:34;;;;;;;;;;;;;;;-144.99;91.79;52423.63;5066230;28;20381;-64
2023/04/16 00:26:00;;;;;;;;;;;;;;;-144.99;91.98;52427.72;5062211;28;19998;-64
2023/04/16 00:28:27;;;;;;;;;;;;;;;-144.99;92.02;52409.38;5063005;28;22136;-64
2023/04/16 00:30:54;;;;;;;;;;;;;;;-144.99;92.16;52439.94;5065189;28;20407;-63
2023/04/16 00:33:20;;;;;;;;;;;;;;;-144.99;92.10;52415.47;5067617;28;20053;-68
2023/04/16 00:35:48;;;;;;;;;;;;;;;-144.99;91.98;52419.56;5066760;28;20076;-64
2023/04/16 00:38:15;;;;;;;;;;;;;;;-144.99;92.28;52423.63;5065631;28;19968;-63
2023/04/16 00:40:41;;;;;;;;;;;;;;;-144.99;92.22;52399.19;5059125;28;20274;-63
2023/04/16 00:43:08;;;;;;;;;;;;;;;-144.99;92.05;52407.31;5065818;28;20020;-63
2023/04/16 00:45:34;;;;;;;;;;;;;;;-144.99;91.78;52403.25;5059758;28;19971;-63
2023/04/16 00:48:01;;;;;;;;;;;;;;;-144.99;93.58;52419.56;5058762;28;19951;-64
2023/04/16 00:50:28;;;;;;;;;;;;;;;-144.99;93.72;52444.03;5067361;28;20045;-64
2023/04/16 00:52:56;;;;;;;;;;;;;;;-144.99;94.44;52435.88;5058182;28;20022;-67
2023/04/16 00:55:23;;;;;;;;;;;;;;;-144.99;94.69;52464.41;5060904;28;19986;-65
2023/04/16 00:57:49;;;;;;;;;;;;;;;-144.99;95.00;52456.25;5053099;28;19982;-68
2023/04/16 01:00:16;;;;;;;;;;;;;;;-144.99;94.92;52419.56;5067079;28;20422;-70
2023/04/16 01:02:43;;;;;;;;;;;;;;;-144.99;94.63;52391.03;5057344;28;20009;-70
2023/04/16 01:05:10;;;;;;;;;;;;;;;-144.99;92.90;52460.31;5062585;28;20223;-70
2023/04/16 01:07:36;;;;;;;;;;;;;;;-144.99;92.37;52427.72;5066169;28;19931;-71
2023/04/16 01:10:04;;;;;;;;;;;;;;;-144.99;92.12;52419.56;5067303;28;20342;-69
2023/04/16 01:12:31;;;;;;;;;;;;;;;-144.99;92.03;52435.88;5058944;28;19924;-69
2023/04/16 01:14:57;;;;;;;;;;;;;;;-144.99;91.85;52476.63;5060144;28;19967;-63
2023/04/16 01:17:24;;;;;;;;;;;;;;;-144.99;91.75;52413.44;5068651;28;20337;-63
2023/04/16 01:19:50;;;;;;;;;;;;;;;-144.99;91.72;52382.88;5059238;28;20008;-68
2023/04/16 01:22:18;;;;;;;;;;;;;;;-144.99;91.75;52391.03;5063707;28;19932;-67
2023/04/16 01:24:45;;;;;;;;;;;;;;;-144.99;91.27;52403.25;5064313;28;20455;-67
2023/04/16 01:27:11;;;;;;;;;;;;;;;-144.99;91.28;52460.31;5061354;28;19940;-67
2023/04/16 01:29:38;;;;;;;;;;;;;;;-144.99;91.06;52403.25;5053736;28;19994;-67
2023/04/16 01:32:04;;;;;;;;;;;;;;;-144.99;90.86;52395.09;5062972;28;19964;-67
2023/04/16 01:34:31;;;;;;;;;;;;;;;-144.99;90.83;52448.09;5058677;28;19964;-67
2023/04/16 01:36:58;;;;;;;;;;;;;;;-144.99;90.74;52431.78;5053821;28;20343;-68
2023/04/16 01:39:26;;;;;;;;;;;;;;;-144.99;90.80;52446.06;5052043;28;19989;-68
2023/04/16 01:41:52;;;;;;;;;;;;;;;-144.99;90.74;52427.72;5057818;28;19933;-69
2023/04/16 01:44:19;;;;;;;;;;;;;;;-144.99;90.75;52421.59;5047519;28;19991;-67
2023/04/16 01:46:45;;;;;;;;;;;;;;;-144.99;90.81;52415.47;5057801;28;19925;-75
2023/04/16 01:49:12;;;;;;;;;;;;;;;-144.99;90.84;52415.47;5057444;28;19962;-71
2023/04/16 01:51:39;;;;;;;;;;;;;;;-144.99;90.74;52399.19;4713939;28;10000546;-71
2023/04/16 01:54:05;;;;;;;;;;;;;;;-144.99;90.77;52415.47;5056938;28;20457;-71
2023/04/16 01:56:33;;;;;;;;;;;;;;;-144.99;90.74;52431.78;5055931;28;19933;-70
2023/04/16 01:58:59;;;;;;;;;;;;;;;-144.99;90.74;52413.44;5055639;28;20377;-69
2023/04/16 02:01:26;;;;;;;;;;;;;;;-144.99;90.62;52417.53;5067674;28;20000;-69
2023/04/16 02:03:53;;;;;;;;;;;;;;;-144.99;90.54;52435.88;5056933;28;19932;-70
2023/04/16 02:06:19;;;;;;;;;;;;;;;-144.99;90.58;52448.09;5059875;28;20491;-68
2023/04/16 02:08:46;;;;;;;;;;;;;;;-144.99;90.92;52407.31;5066161;28;19925;-66
2023/04/16 02:11:12;;;;;;;;;;;;;;;-144.99;90.86;52399.19;5053247;28;19933;-65
2023/04/16 02:13:40;;;;;;;;;;;;;;;-144.99;90.91;52419.56;5052035;28;19991;-68
2023/04/16 02:16:07;;;;;;;;;;;;;;;-144.99;90.91;52401.22;5064683;28;20030;-69
2023/04/16 02:18:34;;;;;;;;;;;;;;;-144.99;90.85;52395.09;5054703;28;19928;-69
2023/04/16 02:21:01;;;;;;;;;;;;;;;-144.99;91.02;52458.28;5066554;28;20355;-67
2023/04/16 02:23:27;;;;;;;;;;;;;;;-144.99;91.01;52427.72;5068983;28;19947;-70
2023/04/16 02:25:54;;;;;;;;;;;;;;;-144.99;90.93;52384.91;5059393;28;19944;-69
2023/04/16 02:28:20;;;;;;;;;;;;;;;-144.99;91.21;52441.97;5065140;28;19940;-70
2023/04/16 02:30:48;;;;;;;;;;;;;;;-144.99;91.05;52444.03;5063882;28;19956;-69
2023/04/16 02:33:14;;;;;;;;;;;;;;;-144.99;91.01;52444.03;5054681;28;20389;-69
2023/04/16 02:35:41;;;;;;;;;;;;;;;-144.99;91.01;52433.81;5049418;28;19929;-69
2023/04/16 02:38:08;;;;;;;;;;;;;;;-144.99;91.16;52415.47;5060714;28;19925;-69
2023/04/16 02:40:34;;;;;;;;;;;;;;;-144.99;91.11;52441.97;5056898;28;19929;-69
2023/04/16 02:43:01;;;;;;;;;;;;;;;-144.99;90.95;52431.78;5064368;28;20002;-69
2023/04/16 02:45:27;;;;;;;;;;;;;;;-144.99;90.95;52452.16;5057713;28;19959;-65
2023/04/16 02:47:55;;;;;;;;;;;;;;;-144.99;91.04;52423.63;5061647;28;19928;-65
2023/04/16 02:50:22;;;;;;;;;;;;;;;-144.99;91.09;52382.88;5062330;28;19992;-65
2023/04/16 02:52:50;;;;;;;;;;;;;;;-144.99;90.96;52456.25;5064890;28;19929;-67
2023/04/16 02:55:17;;;;;;;;;;;;;;;-144.99;90.98;52435.88;5063631;28;19928;-64
2023/04/16 02:57:43;;;;;;;;;;;;;;;-144.99;90.86;52444.03;5066563;28;20109;-64
2023/04/16 03:00:10;;;;;;;;;;;;;;;-144.99;90.87;52423.63;5055466;28;19929;-64
2023/04/16 03:02:37;;;;;;;;;;;;;;;-144.99;90.88;52401.22;5067833;28;20019;-69
2023/04/16 03:05:05;;;;;;;;;;;;;;;-144.99;90.78;52431.78;5061108;28;19959;-69
2023/04/16 03:07:31;;;;;;;;;;;;;;;-144.99;90.86;52378.78;5064647;28;19932;-68
2023/04/16 03:09:58;;;;;;;;;;;;;;;-144.99;90.92;52439.94;5061893;28;19986;-67
2023/04/16 03:12:24;;;;;;;;;;;;;;;-144.99;90.94;52423.63;5057726;28;19929;-67
2023/04/16 03:14:51;;;;;;;;;;;;;;;-144.99;90.90;52427.72;5050537;28;20385;-67
2023/04/16 03:17:17;;;;;;;;;;;;;;;-144.99;91.21;52435.88;5053676;28;19972;-69
2023/04/16 03:19:44;;;;;;;;;;;;;;;-144.99;91.05;52409.38;5061894;28;20009;-67
2023/04/16 03:22:12;;;;;;;;;;;;;;;-144.99;91.18;52435.88;5060643;28;19975;-67
2023/04/16 03:24:38;;;;;;;;;;;;;;;-144.99;91.39;52407.31;5066151;28;20379;-67
2023/04/16 03:27:05;;;;;;;;;;;;;;;-144.99;91.29;52415.47;5056448;28;19936;-69
2023/04/16 03:29:31;;;;;;;;;;;;;;;-144.99;91.41;52439.94;5056131;28;20346;-70
2023/04/16 03:31:58;;;;;;;;;;;;;;;-144.99;91.42;52456.25;5057999;28;20294;-70
2023/04/16 03:34:24;;;;;;;;;;;;;;;-144.99;91.47;52446.06;5052349;28;19998;-69
2023/04/16 03:36:51;;;;;;;;;;;;;;;-144.99;91.37;52399.19;5065759;28;20015;-69
2023/04/16 03:39:19;;;;;;;;;;;;;;;-144.99;91.34;52427.72;5061850;28;19929;-70
2023/04/16 03:41:45;;;;;;;;;;;;;;;-144.99;91.37;52452.16;5062159;28;19939;-73
2023/04/16 03:44:12;;;;;;;;;;;;;;;-144.99;91.33;52403.25;5056483;28;19975;-70
2023/04/16 03:46:39;;;;;;;;;;;;;;;-144.99;91.39;52415.47;5054701;28;19925;-66
2023/04/16 03:49:05;;;;;;;;;;;;;;;-144.99;91.40;52446.06;5064103;28;19924;-66
2023/04/16 03:51:32;;;;;;;;;;;;;;;-144.99;91.51;52419.56;5065064;28;20300;-66
2023/04/16 03:53:58;;;;;;;;;;;;;;;-144.99;91.55;52448.09;5052368;28;20409;-66
2023/04/16 03:56:26;;;;;;;;;;;;;;;-144.99;92.87;52415.47;5067589;28;20381;-64
2023/04/16 03:58:53;;;;;;;;;;;;;;;-144.99;94.45;52399.19;5052386;28;19932;-67
2023/04/16 04:01:19;;;;;;;;;;;;;;;-144.99;95.00;52448.09;5056488;28;20329;-66
2023/04/16 04:03:46;;;;;;;;;;;;;;;-144.99;95.51;52444.03;5060813;28;20132;-67
2023/04/16 04:06:13;;;;;;;;;;;;;;;-144.99;95.67;52415.47;5056458;28;19975;-68
2023/04/16 04:08:39;;;;;;;;;;;;;;;-144.99;96.12;52419.56;5066023;28;19929;-68
2023/04/16 04:11:06;;;;;;;;;;;;;;;-144.99;96.24;52435.88;5062143;28;19980;-68
2023/04/16 04:13:33;;;;;;;;;;;;;;;-144.99;96.31;52448.09;5059478;28;19924;-68
2023/04/16 04:16:00;;;;;;;;;;;;;;;-144.99;96.42;52460.31;5060270;28;19925;-68
2023/04/16 04:18:26;;;;;;;;;;;;;;;-144.99;96.36;52419.56;5053532;28;19925;-68
2023/04/16 04:20:53;;;;;;;;;;;;;;;-144.99;96.57;52423.63;5062201;28;19936;-76
2023/04/16 04:23:20;;;;;;;;;;;;;;;-144.99;96.62;52427.72;5056421;28;19959;-76
2023/04/16 04:25:46;;;;;;;;;;;;;;;-144.99;96.81;52439.94;5060498;28;19928;-75
2023/04/16 04:28:13;;;;;;;;;;;;;;;-144.99;94.78;52413.44;5059879;28;20369;-75
2023/04/16 04:30:41;;;;;;;;;;;;;;;-144.99;93.99;52431.78;5054457;28;20294;-75
2023/04/16 04:33:07;;;;;;;;;;;;;;;-144.99;93.64;52427.72;5055892;28;19924;-75
2023/04/16 04:35:34;;;;;;;;;;;;;;;-144.99;93.52;52437.91;5061376;28;19925;-75
2023/04/16 04:38:01;;;;;;;;;;;;;;;-144.99;93.43;52391.03;5064704;28;20023;-76
2023/04/16 04:40:27;;;;;;;;;;;;;;;-144.99;93.47;52431.78;5054615;28;19924;-75
2023/04/16 04:42:54;;;;;;;;;;;;;;;-144.99;93.25;52444.03;5058205;28;19926;-72
2023/04/16 04:45:24;;;;;;;;;;;;;;;-144.99;92.94;52421.59;5056779;28;20363;-70
2023/04/16 04:47:51;;;;;;;;;;;;;;;-144.99;93.01;52413.44;5050182;28;20384;-71
2023/04/16 04:50:18;;;;;;;;;;;;;;;-144.99;93.05;52427.72;5060652;28;19951;-71
2023/04/16 04:52:45;;;;;;;;;;;;;;;-144.99;93.06;52391.03;5068524;28;19959;-72
2023/04/16 04:55:12;;;;;;;;;;;;;;;-144.99;93.04;52407.31;5061827;28;19975;-71
2023/04/16 04:57:39;;;;;;;;;;;;;;;-144.99;93.71;52431.78;5056679;28;19929;-63
2023/04/16 05:00:06;;;;;;;;;;;;;;;-144.99;95.16;52415.47;5053152;28;19975;-64
2023/04/16 05:02:33;;;;;;;;;;;;;;;-144.99;95.91;52411.41;5058455;28;19970;-66
2023/04/16 05:05:01;;;;;;;;;;;;;;;-144.99;96.28;52444.03;5058837;28;19925;-65
2023/04/16 05:07:27;;;;;;;;;;;;;;;-144.99;93.80;52397.13;5062838;28;20275;-68
2023/04/16 05:09:54;;;;;;;;;;;;;;;-144.99;93.33;52435.88;5058445;28;20006;-70
2023/04/16 05:12:20;;;;;;;;;;;;;;;-144.99;93.01;52435.88;5060454;28;20010;-73
2023/04/16 05:14:47;;;;;;;;;;;;;;;-144.99;92.91;52407.31;5062074;28;20085;-70
2023/04/16 05:17:13;;;;;;;;;;;;;;;-144.99;92.74;52403.25;5058126;28;20328;-67
2023/04/16 05:19:40;;;;;;;;;;;;;;;-144.99;92.76;52415.47;5063408;28;19982;-69
2023/04/16 05:22:08;;;;;;;;;;;;;;;-144.99;92.50;52391.03;5055184;28;19924;-67
2023/04/16 05:24:34;;;;;;;;;;;;;;;-144.99;92.51;52403.25;5060586;28;20309;-67
2023/04/16 05:27:01;;;;;;;;;;;;;;;-144.99;92.52;52419.56;5062731;28;20419;-71
2023/04/16 05:29:27;;;;;;;;;;;;;;;-144.99;92.44;52450.13;5057805;28;20019;-67
2023/04/16 05:31:54;;;;;;;;;;;;;;;-144.99;92.28;52448.09;5054921;28;19925;-65
2023/04/16 05:34:20;;;;;;;;;;;;;;;-144.99;92.29;52415.47;5055133;28;20366;-65
2023/04/16 05:36:47;;;;;;;;;;;;;;;-144.99;92.25;52419.56;5060369;28;20103;-66
2023/04/16 05:39:16;;;;;;;;;;;;;;;-144.99;92.21;52435.88;5057721;28;20346;-64
2023/04/16 05:41:43;;;;;;;;;;;;;;;-144.99;92.28;52433.81;5059833;28;20348;-67
2023/04/16 05:44:09;;;;;;;;;;;;;;;-144.99;92.10;52435.88;5059648;28;19986;-67
2023/04/16 05:46:36;;;;;;;;;;;;;;;-144.99;92.20;52399.19;5059064;28;20301;-67
2023/04/16 05:49:02;;;;;;;;;;;;;;;-144.99;92.00;52407.31;5057803;28;19990;-66
2023/04/16 05:51:29;;;;;;;;;;;;;;;-144.99;92.12;52386.94;5056833;28;19925;-66
2023/04/16 05:53:55;;;;;;;;;;;;;;;-144.99;91.99;52427.72;5065725;28;19929;-66
2023/04/16 05:56:24;;;;;;;;;;;;;;;-144.99;91.80;52431.78;5049534;28;20025;-64
2023/04/16 05:58:50;;;;;;;;;;;;;;;-144.99;91.85;52448.09;5050553;28;19932;-65
2023/04/16 06:01:18;;;;;;;;;;;;;;;-144.99;91.91;52421.59;5068097;28;20415;-65
2023/04/16 06:03:44;;;;;;;;;;;;;;;-144.99;91.67;52403.25;5058781;28;20389;-65
2023/04/16 06:06:11;;;;;;;;;;;;;;;-144.99;91.67;52403.25;5057425;28;20012;-65
2023/04/16 06:08:37;;;;;;;;;;;;;;;-144.99;91.61;52435.88;5059064;28;19964;-65
2023/04/16 06:11:04;;;;;;;;;;;;;;;-144.99;91.49;52419.56;5061809;28;19971;-66
2023/04/16 06:13:32;;;;;;;;;;;;;;;-144.99;91.39;52444.03;5061497;28;20158;-66
2023/04/16 06:15:58;;;;;;;;;;;;;;;-144.99;91.42;52415.47;5056987;28;20037;-66
2023/04/16 06:18:25;;;;;;;;;;;;;;;-144.99;91.22;52409.38;5054763;28;19979;-68
2023/04/16 06:20:51;;;;;;;;;;;;;;;-144.99;91.11;52397.13;5058340;28;20088;-67
2023/04/16 06:23:18;;;;;;;;;;;;;;;-144.99;91.12;52448.09;5067846;28;20019;-68
2023/04/16 06:25:44;;;;;;;;;;;;;;;-144.99;90.86;52366.56;5060740;28;20417;-68
2023/04/16 06:28:11;;;;;;;;;;;;;;;-144.99;90.93;52413.44;5057531;28;19928;-68
2023/04/16 06:30:39;;;;;;;;;;;;;;;-144.99;91.02;52427.72;5059620;28;20350;-68
2023/04/16 06:33:06;;;;;;;;;;;;;;;-144.99;90.85;52380.84;5060981;28;20023;-66
2023/04/16 06:35:32;;;;;;;;;;;;;;;-144.99;90.69;52417.53;5060206;28;20009;-68
2023/04/16 06:37:59;;;;;;;;;;;;;;;-144.99;90.69;52413.44;5069180;28;19925;-68
2023/04/16 06:40:25;;;;;;;;;;;;;;;-144.99;90.72;52384.91;5056316;28;19939;-68
2023/04/16 06:42:52;;;;;;;;;;;;;;;-144.99;90.75;52439.94;5064812;28;20021;-68
2023/04/16 06:45:21;;;;;;;;;;;;;;;-144.99;90.58;52423.63;5055277;28;19963;-69
2023/04/16 06:47:49;;;;;;;;;;;;;;;-144.99;90.58;52366.56;5069177;28;20438;-70
2023/04/16 06:50:16;;;;;;;;;;;;;;;-144.99;90.23;52425.66;5064172;28;19942;-61
2023/04/16 06:52:42;;;;;;;;;;;;;;;-144.99;90.11;52366.56;5058378;28;19959;-64
2023/04/16 06:55:09;;;;;;;;;;;;;;;-144.99;90.24;52378.78;5066156;28;19975;-64
2023/04/16 06:57:36;;;;;;;;;;;;;;;-144.99;90.15;52413.44;5058125;28;19924;-63
2023/04/16 07:00:03;;;;;;;;;;;;;;;-144.99;89.99;52378.78;5057282;28;19974;-64
2023/04/16 07:02:30;;;;;;;;;;;;;;;-144.99;89.82;52407.31;5060013;28;19925;-64
2023/04/16 07:04:59;;;;;;;;;;;;;;;-144.99;89.65;52403.25;5062179;28;19924;-65
2023/04/16 07:07:26;;;;;;;;;;;;;;;-144.99;89.66;52435.88;5060141;28;20344;-64
2023/04/16 07:09:52;;;;;;;;;;;;;;;-144.99;89.44;52395.09;5057918;28;20002;-64
2023/04/16 07:12:19;;;;;;;;;;;;;;;-144.99;89.43;52444.03;5052286;28;19929;-64
2023/04/16 07:14:46;;;;;;;;;;;;;;;-144.99;89.46;52386.94;5068530;28;20015;-64
2023/04/16 07:17:13;;;;;;;;;;;;;;;-144.99;89.50;52386.94;5055302;28;19928;-65
2023/04/16 07:19:39;;;;;;;;;;;;;;;-144.99;90.59;52415.47;5053290;28;19964;-64
2023/04/16 07:22:08;;;;;;;;;;;;;;;-144.99;89.98;52329.88;5056612;28;19943;-64
2023/04/16 07:24:34;;;;;;;;;;;;;;;-144.99;90.16;52401.22;5065293;28;20460;-64
2023/04/16 07:27:01;;;;;;;;;;;;;;;-144.99;90.30;52386.94;5057755;28;20008;-62
2023/04/16 07:29:27;;;;;;;;;;;;;;;-144.99;90.33;52397.13;5051301;28;20382;-63
2023/04/16 07:31:54;;;;;;;;;;;;;;;-144.99;90.80;52360.44;5054569;28;20077;-64
2023/04/16 07:34:20;;;;;;;;;;;;;;;-144.99;90.21;52403.25;5067509;28;20416;-63
2023/04/16 07:36:47;;;;;;;;;;;;;;;-144.99;90.02;52415.47;5054728;28;19937;-63
2023/04/16 07:39:15;;;;;;;;;;;;;;;-144.99;90.27;52374.72;5054814;28;20333;-63
2023/04/16 07:41:41;;;;;;;;;;;;;;;-144.99;90.33;52362.50;5064911;28;20337;-63
2023/04/16 07:44:09;;;;;;;;;;;;;;;-144.99;90.05;52372.69;5057342;28;19928;-64
2023/04/16 07:46:35;;;;;;;;;;;;;;;-144.99;89.97;52388.97;5055649;28;20307;-63
2023/04/16 07:49:02;;;;;;;;;;;;;;;-144.99;89.84;52395.09;5060722;28;19925;-63
2023/04/16 07:51:29;;;;;;;;;;;;;;;-144.99;89.16;52386.94;5055983;28;19929;-63
2023/04/16 07:53:55;;;;;;;;;;;;;;;-144.99;88.49;52407.31;5062442;28;20037;-64
2023/04/16 07:56:23;;;;;;;;;;;;;;;-144.99;88.56;52370.63;5051148;28;19975;-67
2023/04/16 07:58:49;;;;;;;;;;;;;;;-144.99;88.14;52419.56;5059006;28;19936;-65
2023/04/16 08:01:16;;;;;;;;;;;;;;;-144.99;87.55;52378.78;5059137;28;20408;-65
2023/04/16 08:03:42;;;;;;;;;;;;;;;-144.99;87.62;52403.25;5057277;28;19928;-65
2023/04/16 08:06:09;;;;;;;;;;;;;;;-144.99;87.13;52370.63;5059086;28;20025;-65
2023/04/16 08:08:35;;;;;;;;;;;;;;;-144.99;86.49;52374.72;5065059;28;19994;-66
2023/04/16 08:11:02;;;;;;;;;;;;;;;-144.99;86.23;52366.56;5059547;28;19929;-64
2023/04/16 08:13:30;;;;;;;;;;;;;;;-144.99;85.42;52370.63;5067891;28;19955;-65
2023/04/16 08:15:56;;;;;;;;;;;;;;;-144.99;85.46;52368.59;5053478;28;19986;-65
2023/04/16 08:18:23;;;;;;;;;;;;;;;-144.99;85.29;52338.03;5055301;28;19994;-66
2023/04/16 08:20:49;;;;;;;;;;;;;;;-144.99;85.21;52399.19;5059227;28;20279;-65
2023/04/16 08:23:16;;;;;;;;;;;;;;;-144.99;85.00;52370.63;5057890;28;19933;-64
2023/04/16 08:25:42;;;;;;;;;;;;;;;-144.99;84.85;52391.03;5058280;28;19933;-65
2023/04/16 08:28:09;;;;;;;;;;;;;;;-144.99;84.47;52386.94;5058358;28;20007;-66
2023/04/16 08:30:37;;;;;;;;;;;;;;;-144.99;84.35;52431.78;5064000;28;20435;-66
2023/04/16 08:33:03;;;;;;;;;;;;;;;-144.99;84.47;52407.31;5055680;28;20419;-64
2023/04/16 08:35:30;;;;;;;;;;;;;;;-144.99;84.26;52378.78;5058904;28;19982;-65
2023/04/16 08:37:58;;;;;;;;;;;;;;;-144.99;83.97;52391.03;5057679;28;20319;-65
2023/04/16 08:40:26;;;;;;;;;;;;;;;-144.99;84.15;52370.63;5057123;28;20289;-66
2023/04/16 08:42:54;;;;;;;;;;;;;;;-144.99;83.68;52395.09;5061392;28;20377;-66
2023/04/16 08:45:21;;;;;;;;;;;;;;;-144.99;83.68;52386.94;5056371;28;20023;-66
2023/04/16 08:47:50;;;;;;;;;;;;;;;-144.99;83.45;52370.63;5058687;28;19955;-64
2023/04/16 08:50:17;;;;;;;;;;;;;;;-144.99;83.53;52395.09;5062142;28;20025;-67
2023/04/16 08:52:46;;;;;;;;;;;;;;;-144.99;83.55;52386.94;5058289;28;20459;-65
2023/04/16 08:55:13;;;;;;;;;;;;;;;-144.99;83.46;52403.25;5068386;28;20381;-65
2023/04/16 08:57:43;;;;;;;;;;;;;;;-144.99;83.34;52382.88;5055221;28;20027;-66
2023/04/16 09:00:12;;;;;;;;;;;;;;;-144.99;83.52;52391.03;5057430;28;20389;-66
2023/04/16 09:02:38;;;;;;;;;;;;;;;-144.99;83.64;52374.72;5060156;28;19924;-66
2023/04/16 09:05:07;;;;;;;;;;;;;;;-144.99;83.59;52407.31;5062315;28;20000;-65
2023/04/16 09:07:34;;;;;;;;;;;;;;;-144.99;83.76;52399.19;5065933;28;19925;-66
2023/04/16 09:10:01;;;;;;;;;;;;;;;-144.99;83.59;52391.03;5057306;28;20016;-66
2023/04/16 09:12:27;;;;;;;;;;;;;;;-144.99;83.62;52378.78;5070517;28;20090;-66
2023/04/16 09:14:55;;;;;;;;;;;;;;;-144.99;83.54;52338.03;5067539;28;19928;-66
2023/04/16 09:17:22;;;;;;;;;;;;;;;-144.99;83.59;52350.25;5057759;28;20062;-66
2023/04/16 09:19:48;;;;;;;;;;;;;;;-144.99;83.51;52366.56;5061993;28;20408;-66
2023/04/16 09:22:16;;;;;;;;;;;;;;;-144.99;83.41;52370.63;5070694;28;20043;-66
2023/04/16 09:24:43;;;;;;;;;;;;;;;-144.99;83.25;52403.25;5069361;28;20561;-66
2023/04/16 09:27:09;;;;;;;;;;;;;;;-144.99;83.33;52386.94;5060443;28;19983;-67
2023/04/16 09:29:37;;;;;;;;;;;;;;;-144.99;83.24;52352.28;4354526;28;10000849;-64
2023/04/16 09:32:04;;;;;;;;;;;;;;;-144.99;83.25;52358.41;5053661;28;19976;-67
2023/04/16 09:34:32;;;;;;;;;;;;;;;-144.99;83.23;52360.44;5060236;28;20297;-65
2023/04/16 09:37:13;;;;;;;;;;;;;;;-144.99;83.25;52380.84;5055835;28;19949;-66
2023/04/16 09:39:42;;;;;;;;;;;;;;;-144.99;82.62;52411.41;5049330;28;20044;-65
2023/04/16 09:42:08;;;;;;;;;;;;;;;-144.99;82.41;52376.75;5056508;28;19928;-65
2023/04/16 09:44:36;;;;;;;;;;;;;;;-144.99;81.88;52360.44;5058149;28;19929;-66
2023/04/16 09:47:06;;;;;;;;;;;;;;;-144.99;81.46;52382.88;5058784;28;19928;-67
2023/04/16 09:49:34;;;;;;;;;;;;;;;-144.99;81.32;52366.56;5049806;28;19968;-66
2023/04/16 09:52:01;;;;;;;;;;;;;;;-144.99;81.24;52325.81;5039947;28;20194;-67
2023/04/16 09:54:27;;;;;;;;;;;;;;;-144.99;80.74;52370.63;5041241;28;20319;-65
2023/04/16 09:56:56;;;;;;;;;;;;;;;-144.99;79.92;52354.34;5041973;28;19983;-66
2023/04/16 09:59:23;;;;;;;;;;;;;;;-144.99;79.24;52374.72;5044090;28;19986;-65
2023/04/16 10:01:52;;;;;;;;;;;;;;;-144.99;79.35;52344.16;5043605;28;20032;-66
2023/04/16 10:04:18;;;;;;;;;;;;;;;-144.99;79.07;52386.94;5048609;28;19925;-65
2023/04/16 10:06:47;;;;;;;;;;;;;;;-144.99;78.82;52391.03;5046426;28;19932;-65
2023/04/16 10:09:13;;;;;;;;;;;;;;;-144.99;78.82;52338.03;5045497;28;20025;-67
2023/04/16 10:11:40;;;;;;;;;;;;;;;-144.99;78.64;52362.50;5049522;28;19924;-66
2023/04/16 10:14:08;;;;;;;;;;;;;;;-144.99;78.89;52366.56;5046916;28;20332;-67
2023/04/16 10:16:34;;;;;;;;;;;;;;;-144.99;79.03;52333.94;5046679;28;19940;-66
2023/04/16 10:19:02;;;;;;;;;;;;;;;-144.99;78.97;52413.44;5049391;28;21358;-68
2023/04/16 10:21:32;;;;;;;;;;;;;;;-144.99;78.57;52413.44;5046849;28;20074;-66
2023/04/16 10:23:59;;;;;;;;;;;;;;;-144.99;78.75;52362.50;5048968;28;19998;-67
2023/04/16 10:26:25;;;;;;;;;;;;;;;-144.99;78.85;52366.56;5046470;28;20324;-67
2023/04/16 10:28:53;;;;;;;;;;;;;;;-144.99;79.16;52350.25;5045391;28;20037;-67
2023/04/16 10:31:21;;;;;;;;;;;;;;;-144.99;79.12;52382.88;5047395;28;19932;-66
2023/04/16 10:33:48;;;;;;;;;;;;;;;-144.99;79.16;52401.22;5049059;28;19928;-68
2023/04/16 10:36:15;;;;;;;;;;;;;;;-144.99;79.19;52382.88;5059129;28;20011;-69
2023/04/16 10:38:44;;;;;;;;;;;;;;;-144.99;79.08;52350.25;5060222;28;20411;-66
2023/04/16 10:41:11;;;;;;;;;;;;;;;-144.99;79.38;52372.69;5057441;28;19960;-68
2023/04/16 10:43:41;;;;;;;;;;;;;;;-144.99;79.58;52382.88;5055734;28;20293;-68
2023/04/16 10:46:17;;;;;;;;;;;;;;;-144.99;79.57;52388.97;5063442;28;19930;-67
2023/04/16 10:48:45;;;;;;;;;;;;;;;-144.99;79.75;52386.94;5057770;28;20294;-69
2023/04/16 10:51:23;;;;;;;;;;;;;;;-144.99;80.06;52382.88;5061272;28;19932;-68
2023/04/16 10:53:50;;;;;;;;;;;;;;;-144.99;80.07;52362.50;5063004;28;19964;-67
2023/04/16 10:56:22;;;;;;;;;;;;;;;-144.99;80.00;52407.31;5067583;28;19924;-67
2023/04/16 10:58:49;;;;;;;;;;;;;;;-144.99;79.80;52354.34;5049704;28;19936;-68
2023/04/16 11:01:15;;;;;;;;;;;;;;;-144.99;79.76;52395.09;5057784;28;20032;-68
2023/04/16 11:03:43;;;;;;;;;;;;;;;-144.99;79.69;52417.53;5065989;28;19928;-67
2023/04/16 11:06:15;;;;;;;;;;;;;;;-144.99;79.63;52378.78;5063779;28;19931;-67
2023/04/16 11:08:42;;;;;;;;;;;;;;;-144.99;79.47;52378.78;5068571;28;19935;-66
2023/04/16 11:11:09;;;;;;;;;;;;;;;-144.99;79.55;52378.78;5063329;28;20078;-67
2023/04/16 11:13:36;;;;;;;;;;;;;;;-144.99;79.54;52391.03;5058294;28;20286;-67
2023/04/16 11:16:03;;;;;;;;;;;;;;;-144.99;79.52;52391.03;5050546;28;19928;-68
2023/04/16 11:18:30;;;;;;;;;;;;;;;-144.99;79.53;52374.72;5054275;28;19932;-67
2023/04/16 11:20:57;;;;;;;;;;;;;;;-144.99;79.55;52407.31;5052102;28;20343;-67
2023/04/16 11:23:24;;;;;;;;;;;;;;;-144.99;79.70;52407.31;5054063;28;20274;-68
2023/04/16 11:25:55;;;;;;;;;;;;;;;-144.99;80.20;52435.88;5050759;28;19933;-67
2023/04/16 11:28:31;;;;;;;;;;;;;;;-144.99;81.36;52435.88;5051986;28;19982;-66
2023/04/16 11:30:58;;;;;;;;;;;;;;;-144.99;80.97;52407.31;5056874;28;19936;-67
2023/04/16 11:33:25;;;;;;;;;;;;;;;-144.99;81.95;52411.41;5053334;28;19933;-67
2023/04/16 11:35:56;;;;;;;;;;;;;;;-144.99;82.61;52399.19;4358939;28;10000797;-67
2023/04/16 11:38:34;;;;;;;;;;;;;;;-144.99;83.00;52407.31;5052881;28;20428;-66
2023/04/16 11:41:00;;;;;;;;;;;;;;;-144.99;83.11;52427.72;5064832;28;19937;-67
2023/04/16 11:43:27;;;;;;;;;;;;;;;-144.99;83.38;52399.19;5057900;28;19932;-67
2023/04/16 11:45:56;;;;;;;;;;;;;;;-144.99;83.26;52395.09;5061437;28;20446;-68
2023/04/16 11:48:22;;;;;;;;;;;;;;;-144.99;83.51;52397.13;5061827;28;19960;-67
2023/04/16 11:50:54;;;;;;;;;;;;;;;-144.99;83.19;52386.94;5057899;28;21013;-66
2023/04/16 11:53:21;;;;;;;;;;;;;;;-144.99;82.97;52391.03;5052643;28;19932;-66
2023/04/16 11:55:49;;;;;;;;;;;;;;;-144.99;81.48;52362.50;5050718;28;19982;-67
2023/04/16 11:58:15;;;;;;;;;;;;;;;-144.99;80.78;52370.63;5052372;28;19932;-68
2023/04/16 12:00:42;;;;;;;;;;;;;;;-144.99;80.56;52350.25;5054352;28;20397;-68
2023/04/16 12:03:09;;;;;;;;;;;;;;;-144.99;80.14;52401.22;5051713;28;20589;-67
2023/04/16 12:05:37;;;;;;;;;;;;;;;-144.99;79.97;52368.59;5052108;28;19935;-67
2023/04/16 12:08:05;;;;;;;;;;;;;;;-144.99;79.73;52386.94;5049303;28;19950;-68
2023/04/16 12:10:33;;;;;;;;;;;;;;;-144.99;79.20;52362.50;5051336;28;19975;-67
2023/04/16 12:13:11;;;;;;;;;;;;;;;-144.99;79.35;52380.84;5055972;28;20404;-66
2023/04/16 12:15:45;;;;;;;;;;;;;;;-144.99;79.37;52370.63;5056684;28;20402;-66
2023/04/16 12:18:12;;;;;;;;;;;;;;;-144.99;80.34;52427.72;5060294;28;19925;-67
2023/04/16 12:20:40;;;;;;;;;;;;;;;-144.99;79.88;52333.94;5053435;28;19929;-67
2023/04/16 12:23:07;;;;;;;;;;;;;;;-144.99;79.17;52366.56;5054086;28;20734;-66
2023/04/16 12:25:33;;;;;;;;;;;;;;;-144.99;78.91;52391.03;5058487;28;19932;-66